Decoded Metar for KDYR (DYERSBURG in TN, USA) (IATA:DYR) | Meteo·Mobile Aviation Weather
aviador You're here:

KDYR Decoded Metar

DYERSBURG in TN, USA
Report Time2018-11-15 12:56:00
UTC Time2018-11-15 13:03:56
Flight Rules ifr IFR
Wind270° at 08 kt
W.Decomp.*RWY 22: 5.0 kt HW 6.2 kt RCW
RWY 34: 2.9 kt HW 7.5 kt LCW
W.Rank270° ranks 26
Current wind is above 270° avg. (6.8)
Visibility9999 m
Phenomena:N/A
Clouds:Overcast 007 Hf
Expected CloudBase > 400 ft AGL from Temp-Dew spread
Ceiling700 ft
Temp-2°C (ISA -16)
Dew Point-3°C (93% RH)
AAT-7.3°C
QNH1023 hPa
Density Alt-1,939 ft
Elevation338 ft
Report Wrong Elevation
Raw Report
METAR KDYR 151256Z AUTO 27008KT 8SM OVC007 M02/M03 A3021 RMK AO2 SLP246
T10221033 FZRANO=

Extra information for KDYR:More info

Metar Taf Metar & Taf Last 4 Metars F.Rules Stats Wind Profile Meteogram Temp Stats Airport Information Weather charts Add Link Nearby VenuesMetar ALERT Operation Metar Decoded Social comments

AIRNAV info for KDYR